createdAt,value
2023-04-16T00:03:16.364Z,99659.31
2023-04-16T00:18:18.301Z,99667.78
2023-04-16T00:33:20.092Z,99668.38
2023-04-16T00:48:21.790Z,99680.53
2023-04-16T01:03:31.219Z,99681.97
2023-04-16T01:18:33.187Z,99689.81
2023-04-16T01:33:34.881Z,99705.72
2023-04-16T01:48:36.678Z,99704.69
2023-04-16T02:03:38.583Z,99715.19
2023-04-16T02:18:40.478Z,99712.50
2023-04-16T02:33:42.156Z,99733.75
2023-04-16T02:48:43.833Z,99737.44
2023-04-16T03:03:45.592Z,99754.16
2023-04-16T03:18:47.376Z,99760.34
2023-04-16T03:33:49.016Z,99759.28
2023-04-16T03:48:50.672Z,99783.22
2023-04-16T04:03:52.520Z,99793.94
2023-04-16T04:18:54.375Z,99796.38
2023-04-16T04:33:56.120Z,99812.69
2023-04-16T04:48:57.794Z,99818.66
2023-04-16T05:03:59.511Z,99831.03
2023-04-16T05:19:01.305Z,99835.38
2023-04-16T05:34:03.028Z,99851.47
2023-04-16T05:49:04.697Z,99879.28
2023-04-16T06:04:06.589Z,99891.44
2023-04-16T06:19:08.944Z,99912.06
2023-04-16T06:34:11.064Z,99917.44
2023-04-16T06:49:12.756Z,99926.50
2023-04-16T07:04:14.579Z,99939.69
2023-04-16T07:19:16.265Z,99941.56
2023-04-16T07:34:17.995Z,99958.84
2023-04-16T07:49:19.945Z,99966.69
2023-04-16T08:04:21.971Z,99980.53
2023-04-16T08:19:23.854Z,99990.25
2023-04-16T08:34:25.680Z,100016.81
2023-04-16T08:49:27.391Z,100027.38
2023-04-16T09:04:29.844Z,100038.09
2023-04-16T09:19:31.703Z,100045.94
2023-04-16T09:34:34.557Z,100060.19
2023-04-16T09:49:42.113Z,100072.75
2023-04-16T10:04:50.671Z,100088.63
2023-04-16T10:19:53.650Z,100102.25
2023-04-16T10:34:56.156Z,100113.78
2023-04-16T10:49:58.366Z,100129.06
2023-04-16T11:05:02.097Z,100129.66
2023-04-16T11:20:17.447Z,100144.50
2023-04-16T11:35:21.519Z,100140.38
2023-04-16T11:50:25.645Z,100142.25
2023-04-16T12:05:33.115Z,100162.66
2023-04-16T12:20:40.565Z,100164.13
2023-04-16T12:35:42.555Z,100167.63
2023-04-16T12:50:44.250Z,100160.59
2023-04-16T13:05:46.064Z,100167.44
2023-04-16T13:20:47.741Z,100178.16
2023-04-16T13:35:50.405Z,100191.56
2023-04-16T13:50:52.129Z,100176.31
2023-04-16T14:05:53.866Z,100182.69
2023-04-16T14:20:55.540Z,100177.13
2023-04-16T14:35:57.203Z,100182.28
2023-04-16T14:50:58.946Z,100182.94
2023-04-16T15:06:00.839Z,100184.97
2023-04-16T15:21:02.885Z,100182.28
2023-04-16T15:36:04.815Z,100185.16
2023-04-16T15:51:06.673Z,100194.25
2023-04-16T16:06:08.380Z,100203.13
2023-04-16T16:21:10.238Z,100199.63
2023-04-16T16:36:12.782Z,100205.81
2023-04-16T16:51:14.465Z,100205.16
2023-04-16T17:06:20.360Z,100219.59
2023-04-16T17:21:22.098Z,100220.81
2023-04-16T17:36:23.790Z,100244.38
2023-04-16T17:51:25.531Z,100249.50
2023-04-16T18:06:27.286Z,100268.09
2023-04-16T18:21:29.034Z,100283.34
2023-04-16T18:36:31.157Z,100304.19
2023-04-16T18:51:33.002Z,100317.78
2023-04-16T19:06:35.602Z,100335.53
2023-04-16T19:21:37.471Z,100337.97
2023-04-16T19:36:39.276Z,100338.53
2023-04-16T19:51:41.010Z,100351.50
2023-04-16T20:06:42.666Z,100353.09
2023-04-16T20:21:44.367Z,100359.03
2023-04-16T20:36:46.106Z,100364.56
2023-04-16T20:51:47.825Z,100364.34
2023-04-16T21:06:49.637Z,100357.50
2023-04-16T21:21:51.305Z,100364.28
2023-04-16T21:36:52.951Z,100365.84
2023-04-16T21:51:54.653Z,100375.28
2023-04-16T22:06:56.323Z,100369.63
2023-04-16T22:21:58.011Z,100379.72
2023-04-16T22:36:59.672Z,100379.28
2023-04-16T22:52:01.427Z,100373.16
2023-04-16T23:07:03.110Z,100377.94
2023-04-16T23:22:04.762Z,100384.75
2023-04-16T23:37:06.392Z,100388.09
2023-04-16T23:52:08.160Z,100386.69
